Time;durP1;ratioP1;P1;durP2;ratioP2;P2;SDS_P1;SDS_P2;PMS_P1;PMS_P2;Temp;Humidity;BMP_temperature;BMP_pressure;BME280_temperature;BME280_humidity;BME280_pressure;Samples;Min_cycle;Max_cycle;Signal;HPM_P1;HPM_P2
2021/09/17 00:01:58;;;;;;;22.90;20.50;;;13.70;99.90;;;;;;6181904;23;20009;-68
2021/09/17 00:04:23;;;;;;;22.60;20.17;;;13.80;99.90;;;;;;6179822;23;20052;-68
2021/09/17 00:06:50;;;;;;;24.42;21.20;;;13.70;99.90;;;;;;6180663;23;20020;-67
2021/09/17 00:09:17;;;;;;;26.08;21.15;;;13.70;99.90;;;;;;6154549;23;20349;-67
2021/09/17 00:11:43;;;;;;;21.58;19.38;;;13.70;99.90;;;;;;6153910;23;20385;-67
2021/09/17 00:14:08;;;;;;;22.88;20.08;;;13.70;99.90;;;;;;6181103;23;20147;-67
2021/09/17 00:16:34;;;;;;;21.02;17.83;;;13.70;99.90;;;;;;6155089;23;20433;-67
2021/09/17 00:19:00;;;;;;;21.65;18.95;;;13.60;99.90;;;;;;6154005;23;20039;-67
2021/09/17 00:21:25;;;;;;;19.23;17.27;;;13.60;99.90;;;;;;6180149;23;20021;-67
2021/09/17 00:23:51;;;;;;;19.70;16.95;;;13.60;99.90;;;;;;6154011;23;20400;-67
2021/09/17 00:26:16;;;;;;;18.27;15.93;;;13.50;99.90;;;;;;6154634;23;20121;-67
2021/09/17 00:28:42;;;;;;;16.40;14.50;;;13.40;99.90;;;;;;6155120;23;20024;-67
2021/09/17 00:31:07;;;;;;;16.35;14.85;;;13.40;99.90;;;;;;6156331;23;20117;-67
2021/09/17 00:33:33;;;;;;;17.48;15.63;;;13.30;99.90;;;;;;6155133;23;20341;-67
2021/09/17 00:35:58;;;;;;;17.27;14.93;;;13.20;99.90;;;;;;6156287;23;20041;-68
2021/09/17 00:38:24;;;;;;;19.92;16.80;;;13.20;99.90;;;;;;6155235;23;20067;-69
2021/09/17 00:40:49;;;;;;;18.10;16.17;;;13.20;99.90;;;;;;6183261;23;20080;-68
2021/09/17 00:43:16;;;;;;;16.20;14.13;;;13.10;99.90;;;;;;6155433;23;20028;-68
2021/09/17 00:45:44;;;;;;;16.48;14.77;;;13.00;99.90;;;;;;6132207;23;20009;-68
2021/09/17 00:48:10;;;;;;;16.35;14.63;;;13.00;99.90;;;;;;6154684;23;20109;-69
2021/09/17 00:50:36;;;;;;;16.92;15.10;;;13.00;99.90;;;;;;6128952;23;20045;-68
2021/09/17 00:53:02;;;;;;;15.90;14.30;;;12.90;99.90;;;;;;6180578;23;20351;-68
2021/09/17 00:55:27;;;;;;;16.73;15.02;;;12.90;99.90;;;;;;6183134;23;20100;-68
2021/09/17 00:57:53;;;;;;;16.48;14.77;;;12.80;99.90;;;;;;6183079;23;20044;-68
2021/09/17 01:00:19;;;;;;;17.90;16.00;;;12.80;99.90;;;;;;6181730;23;20013;-68
2021/09/17 01:02:45;;;;;;;18.45;14.98;;;12.80;99.90;;;;;;6155834;23;20917;-68
2021/09/17 01:05:13;;;;;;;15.73;14.18;;;12.70;99.90;;;;;;6154842;23;20045;-68
2021/09/17 01:07:38;;;;;;;14.40;12.93;;;12.70;99.90;;;;;;6156287;23;20441;-68
2021/09/17 01:10:05;;;;;;;15.20;13.68;;;12.60;99.90;;;;;;6182141;23;20063;-68
2021/09/17 01:12:31;;;;;;;13.82;12.43;;;12.60;99.90;;;;;;6154726;23;20009;-68
2021/09/17 01:14:57;;;;;;;12.27;11.02;;;12.60;99.90;;;;;;6155920;23;20326;-68
2021/09/17 01:17:39;;;;;;;11.82;10.75;;;12.50;99.90;;;;;;6155952;23;20071;-68
2021/09/17 01:20:07;;;;;;;11.23;10.13;;;12.50;99.90;;;;;;6155883;23;20008;-67
2021/09/17 01:22:33;;;;;;;10.18;9.10;;;12.50;99.90;;;;;;6155573;23;20073;-67
2021/09/17 01:24:58;;;;;;;9.18;8.27;;;12.40;99.90;;;;;;6155657;23;20020;-68
2021/09/17 01:27:24;;;;;;;10.18;9.18;;;12.40;99.90;;;;;;6154983;23;20059;-68
2021/09/17 01:29:51;;;;;;;9.88;8.88;;;12.40;99.90;;;;;;6181966;23;20361;-68
2021/09/17 01:32:16;;;;;;;12.55;9.38;;;12.30;99.90;;;;;;6155443;23;20064;-67
2021/09/17 01:34:42;;;;;;;10.95;9.88;;;12.30;99.90;;;;;;6182450;23;20017;-68
2021/09/17 01:37:08;;;;;;;9.85;8.93;;;12.30;99.90;;;;;;6181719;23;20125;-68
2021/09/17 01:39:34;;;;;;;8.10;7.30;;;12.30;99.90;;;;;;6155728;23;20441;-68
2021/09/17 01:41:59;;;;;;;8.18;7.28;;;12.20;99.90;;;;;;6156191;23;20047;-68
2021/09/17 01:44:25;;;;;;;9.13;8.23;;;12.20;99.90;;;;;;6155075;23;20235;-68
2021/09/17 01:46:51;;;;;;;10.07;9.07;;;12.20;99.90;;;;;;6153914;23;20009;-68
2021/09/17 01:49:16;;;;;;;11.25;10.10;;;12.10;99.90;;;;;;6180884;23;20017;-68
2021/09/17 01:51:42;;;;;;;11.57;10.23;;;12.10;99.90;;;;;;6129269;23;20019;-68
2021/09/17 01:54:09;;;;;;;13.93;11.20;;;12.10;99.90;;;;;;6153864;23;20441;-68
2021/09/17 01:56:34;;;;;;;12.48;11.18;;;12.10;99.90;;;;;;6182274;23;20024;-69
2021/09/17 01:59:01;;;;;;;12.20;10.82;;;12.10;99.90;;;;;;6154831;23;20472;-68
2021/09/17 02:01:26;;;;;;;12.00;10.90;;;12.10;99.90;;;;;;6154992;23;20088;-69
2021/09/17 02:03:52;;;;;;;13.52;11.85;;;12.10;99.90;;;;;;6155233;23;20091;-68
2021/09/17 02:06:22;;;;;;;11.63;10.52;;;12.00;99.90;;;;;;6154628;23;20013;-68
2021/09/17 02:08:48;;;;;;;12.10;10.07;;;12.10;99.90;;;;;;6155372;23;20020;-68
2021/09/17 02:11:14;;;;;;;18.13;9.63;;;12.00;99.90;;;;;;6182401;23;20016;-68
2021/09/17 02:13:40;;;;;;;14.13;11.40;;;12.00;99.90;;;;;;6154575;23;20092;-68
2021/09/17 02:16:06;;;;;;;12.40;11.15;;;12.00;99.90;;;;;;6182783;23;20037;-69
2021/09/17 02:18:32;;;;;;;26.60;11.35;;;12.00;99.90;;;;;;6154838;23;20013;-68
2021/09/17 02:20:57;;;;;;;70.07;12.73;;;12.00;99.90;;;;;;6155111;23;20017;-68
2021/09/17 02:23:23;;;;;;;99.10;12.85;;;12.00;99.90;;;;;;6181029;23;20020;-68
2021/09/17 02:25:48;;;;;;;92.97;13.25;;;11.90;99.90;;;;;;6155013;23;20028;-68
2021/09/17 02:28:14;;;;;;;126.45;12.95;;;11.90;99.90;;;;;;6181501;23;20013;-68
2021/09/17 02:30:39;;;;;;;118.45;12.40;;;11.80;99.90;;;;;;6154349;23;20111;-68
2021/09/17 02:33:05;;;;;;;45.78;10.93;;;11.80;99.90;;;;;;6181569;23;20020;-69
2021/09/17 02:35:31;;;;;;;25.17;9.48;;;11.70;99.90;;;;;;6154582;23;20354;-69
2021/09/17 02:37:56;;;;;;;18.52;9.98;;;11.70;99.90;;;;;;6155372;23;20398;-69
2021/09/17 02:40:22;;;;;;;10.50;9.60;;;11.70;99.90;;;;;;6155653;23;20028;-68
2021/09/17 02:42:48;;;;;;;11.82;10.73;;;11.80;99.90;;;;;;6155186;23;20112;-68
2021/09/17 02:45:14;;;;;;;11.75;10.75;;;11.80;99.90;;;;;;6155193;23;20393;-67
2021/09/17 02:47:41;;;;;;;11.30;10.23;;;11.90;99.90;;;;;;6180766;23;20063;-68
2021/09/17 02:50:07;;;;;;;11.82;10.75;;;11.90;99.90;;;;;;6180035;23;20040;-68
2021/09/17 02:52:33;;;;;;;12.98;11.77;;;11.90;99.90;;;;;;6180192;23;20020;-68
2021/09/17 02:54:59;;;;;;;12.65;11.45;;;12.00;99.90;;;;;;6180537;23;20084;-68
2021/09/17 02:57:24;;;;;;;11.98;10.88;;;12.00;99.90;;;;;;6154685;23;20068;-68
2021/09/17 02:59:50;;;;;;;14.35;12.68;;;12.10;99.90;;;;;;6155121;23;20025;-68
2021/09/17 03:02:16;;;;;;;12.50;11.20;;;12.10;99.90;;;;;;6129473;23;20044;-68
2021/09/17 03:04:41;;;;;;;15.48;13.95;;;12.10;99.90;;;;;;6154172;23;20028;-68
2021/09/17 03:07:08;;;;;;;14.73;13.20;;;12.20;99.90;;;;;;6182257;23;20020;-68
2021/09/17 03:09:33;;;;;;;18.85;14.98;;;12.20;99.90;;;;;;6154175;23;20013;-68
2021/09/17 03:12:00;;;;;;;15.40;13.68;;;12.20;99.90;;;;;;6181763;23;20091;-68
2021/09/17 03:14:26;;;;;;;40.45;15.02;;;12.20;99.90;;;;;;6130422;23;20017;-68
2021/09/17 03:16:51;;;;;;;17.67;15.77;;;12.20;99.90;;;;;;6181840;23;20072;-68
2021/09/17 03:19:17;;;;;;;16.55;14.82;;;12.20;99.90;;;;;;6180465;23;20024;-68
2021/09/17 03:21:43;;;;;;;17.65;14.50;;;12.20;99.90;;;;;;6181310;23;20107;-68
2021/09/17 03:24:09;;;;;;;16.27;14.52;;;12.30;99.90;;;;;;6154344;23;20013;-68
2021/09/17 03:26:35;;;;;;;17.30;15.60;;;12.30;99.90;;;;;;6155937;23;20051;-68
2021/09/17 03:29:01;;;;;;;16.20;14.50;;;12.30;99.90;;;;;;6155029;23;20055;-68
2021/09/17 03:31:27;;;;;;;19.20;15.52;;;12.30;99.90;;;;;;6154488;23;20082;-68
2021/09/17 03:33:54;;;;;;;19.05;16.48;;;12.30;99.90;;;;;;6154077;23;20017;-68
2021/09/17 03:36:20;;;;;;;16.48;14.77;;;12.30;99.90;;;;;;6149453;23;20048;-68
2021/09/17 03:38:45;;;;;;;15.63;14.05;;;12.40;99.90;;;;;;6150087;23;20433;-68
2021/09/17 03:41:11;;;;;;;15.52;14.02;;;12.40;99.90;;;;;;6149617;23;20013;-68
2021/09/17 03:43:37;;;;;;;15.43;13.93;;;12.40;99.90;;;;;;6148601;23;20501;-68
2021/09/17 03:46:02;;;;;;;16.58;14.55;;;12.40;99.90;;;;;;6149306;23;20088;-68
2021/09/17 03:48:28;;;;;;;15.07;13.52;;;12.40;99.90;;;;;;6149289;23;20445;-68
2021/09/17 03:50:53;;;;;;;15.52;14.02;;;12.40;99.90;;;;;;6150387;23;20374;-68
2021/09/17 03:53:19;;;;;;;16.85;15.05;;;12.50;99.90;;;;;;6149882;23;20018;-68
2021/09/17 03:55:45;;;;;;;15.55;14.05;;;12.50;99.90;;;;;;6150263;23;20040;-68
2021/09/17 03:58:12;;;;;;;17.23;15.52;;;12.50;99.90;;;;;;6149859;23;20052;-68
2021/09/17 04:00:38;;;;;;;20.10;17.65;;;12.50;99.90;;;;;;6149557;23;20503;-68
2021/09/17 04:03:04;;;;;;;16.08;14.57;;;12.50;99.90;;;;;;6148844;23;20013;-68
2021/09/17 04:05:31;;;;;;;16.40;14.55;;;12.50;99.90;;;;;;6153457;23;20010;-68
2021/09/17 04:07:56;;;;;;;16.80;15.05;;;12.50;99.90;;;;;;6153166;23;20017;-68
2021/09/17 04:10:22;;;;;;;15.80;14.18;;;12.50;99.90;;;;;;6126641;23;20327;-68
2021/09/17 04:12:48;;;;;;;16.17;14.60;;;12.60;99.90;;;;;;6151181;23;20013;-68
2021/09/17 04:15:14;;;;;;;16.88;15.27;;;12.60;99.90;;;;;;6152905;23;20017;-68
2021/09/17 04:17:40;;;;;;;17.85;16.05;;;12.60;99.90;;;;;;6151874;23;20084;-68
2021/09/17 04:20:07;;;;;;;15.73;14.23;;;12.60;99.90;;;;;;6151357;23;20089;-68
2021/09/17 04:22:33;;;;;;;17.95;16.25;;;12.70;99.90;;;;;;6126441;23;20014;-68
2021/09/17 04:24:59;;;;;;;16.75;15.13;;;12.70;99.90;;;;;;6125969;23;20025;-68
2021/09/17 04:27:25;;;;;;;17.65;15.77;;;12.70;99.90;;;;;;6151813;23;20419;-68
2021/09/17 04:29:51;;;;;;;16.85;15.18;;;12.80;99.90;;;;;;6150324;23;20120;-69
2021/09/17 04:32:17;;;;;;;17.73;16.02;;;12.80;99.90;;;;;;6151235;23;20017;-68
2021/09/17 04:34:42;;;;;;;18.38;16.55;;;12.80;99.90;;;;;;6153676;23;20014;-68
2021/09/17 04:37:08;;;;;;;17.17;15.55;;;12.80;99.90;;;;;;6151724;23;20025;-68
2021/09/17 04:39:34;;;;;;;17.90;16.13;;;12.80;99.90;;;;;;6151620;23;20048;-68
2021/09/17 04:42:00;;;;;;;16.90;15.07;;;12.90;99.90;;;;;;6151776;23;20444;-68
2021/09/17 04:44:25;;;;;;;16.27;14.68;;;12.80;99.90;;;;;;6150809;23;20021;-67
2021/09/17 04:46:51;;;;;;;17.25;15.45;;;12.80;99.90;;;;;;6151644;23;20021;-67
2021/09/17 04:49:16;;;;;;;16.50;14.95;;;12.80;99.90;;;;;;6151112;23;20338;-67
2021/09/17 04:51:42;;;;;;;18.30;16.48;;;12.80;99.90;;;;;;6152259;23;20410;-67
2021/09/17 04:54:09;;;;;;;17.95;16.05;;;12.80;99.90;;;;;;6151445;23;20048;-67
2021/09/17 04:56:36;;;;;;;18.55;15.82;;;12.80;99.90;;;;;;6151314;23;20441;-67
2021/09/17 04:59:02;;;;;;;23.08;18.90;;;12.80;99.90;;;;;;6153288;23;20013;-67
2021/09/17 05:01:27;;;;;;;19.13;17.15;;;12.80;99.90;;;;;;6126854;23;20337;-67
2021/09/17 05:03:53;;;;;;;17.75;15.95;;;12.80;99.90;;;;;;6152239;23;20067;-67
2021/09/17 05:06:19;;;;;;;25.40;19.48;;;12.80;99.90;;;;;;6151414;23;20085;-67
2021/09/17 05:08:44;;;;;;;29.10;21.73;;;12.90;99.90;;;;;;6151557;23;20009;-68
2021/09/17 05:11:10;;;;;;;27.10;20.55;;;12.90;99.90;;;;;;6151581;23;20017;-67
2021/09/17 05:13:35;;;;;;;25.48;21.58;;;12.80;99.90;;;;;;6151558;23;20028;-68
2021/09/17 05:16:01;;;;;;;25.23;21.00;;;12.80;99.90;;;;;;6150869;23;20021;-67
2021/09/17 05:18:26;;;;;;;22.95;19.83;;;12.80;99.90;;;;;;6151371;23;20093;-67
2021/09/17 05:20:52;;;;;;;23.23;20.80;;;12.80;99.90;;;;;;6152692;23;20013;-67
2021/09/17 05:23:18;;;;;;;24.45;20.70;;;12.90;99.90;;;;;;6153057;23;20013;-67
2021/09/17 05:25:43;;;;;;;23.92;19.67;;;12.90;99.90;;;;;;6151052;23;20525;-67
2021/09/17 05:28:09;;;;;;;24.10;20.95;;;12.90;99.90;;;;;;6150519;23;20013;-67
2021/09/17 05:30:34;;;;;;;23.42;20.52;;;13.00;99.90;;;;;;6152300;23;20072;-68
2021/09/17 05:33:01;;;;;;;26.95;22.88;;;13.10;99.90;;;;;;6152147;23;20060;-68
2021/09/17 05:35:27;;;;;;;24.67;21.70;;;13.10;99.90;;;;;;6150652;23;20457;-68
2021/09/17 05:37:53;;;;;;;32.92;25.20;;;13.10;99.90;;;;;;6181798;23;20032;-68
2021/09/17 05:40:18;;;;;;;25.63;22.40;;;13.20;99.90;;;;;;6182656;23;20036;-68
2021/09/17 05:42:44;;;;;;;31.30;25.15;;;13.20;99.90;;;;;;6182350;23;20096;-68
2021/09/17 05:45:10;;;;;;;34.60;25.90;;;13.20;99.90;;;;;;6182812;23;20024;-68
2021/09/17 05:47:35;;;;;;;27.80;23.92;;;13.20;99.90;;;;;;6182580;23;20576;-68
2021/09/17 05:50:01;;;;;;;22.40;19.88;;;13.20;99.90;;;;;;6156195;23;20056;-68
2021/09/17 05:52:26;;;;;;;24.08;20.52;;;13.30;99.90;;;;;;6151165;23;20321;-68
2021/09/17 05:54:52;;;;;;;25.02;22.42;;;13.30;99.90;;;;;;6151753;23;20121;-68
2021/09/17 05:57:17;;;;;;;28.63;24.55;;;13.30;99.90;;;;;;6153233;23;20061;-68
2021/09/17 05:59:43;;;;;;;27.67;24.67;;;13.40;99.90;;;;;;6151479;23;20478;-68
2021/09/17 06:02:09;;;;;;;25.35;22.75;;;13.40;99.90;;;;;;6153054;23;20021;-68
2021/09/17 06:04:37;;;;;;;28.25;24.25;;;13.50;99.90;;;;;;6149741;23;20017;-69
2021/09/17 06:07:04;;;;;;;29.48;24.50;;;13.50;99.90;;;;;;6150321;23;20060;-68
2021/09/17 06:09:29;;;;;;;28.67;25.15;;;13.50;99.90;;;;;;6125290;23;20021;-68
2021/09/17 06:11:55;;;;;;;25.55;22.92;;;13.50;99.90;;;;;;6150060;23;20080;-67
2021/09/17 06:14:20;;;;;;;26.83;23.90;;;13.50;99.90;;;;;;6149565;23;20025;-69
2021/09/17 06:16:46;;;;;;;29.85;24.75;;;13.60;99.90;;;;;;6152806;23;20020;-69
2021/09/17 06:19:12;;;;;;;30.83;26.95;;;13.60;99.90;;;;;;6152925;23;20013;-69
2021/09/17 06:21:37;;;;;;;34.85;28.63;;;13.60;99.90;;;;;;6126584;23;20545;-69
2021/09/17 06:24:03;;;;;;;28.85;25.45;;;13.70;99.90;;;;;;6148221;23;20013;-69
2021/09/17 06:26:31;;;;;;;35.90;28.17;;;13.70;99.90;;;;;;6148883;23;20017;-69
2021/09/17 06:29:03;;;;;;;35.63;28.10;;;13.80;99.90;;;;;;6150479;23;20045;-68
2021/09/17 06:31:28;;;;;;;29.52;26.00;;;13.80;99.90;;;;;;6150266;23;20009;-69
2021/09/17 06:33:54;;;;;;;30.80;27.48;;;13.90;99.90;;;;;;6151682;23;20345;-69
2021/09/17 06:36:20;;;;;;;27.92;24.42;;;13.90;99.90;;;;;;6147650;23;20021;-69
2021/09/17 06:38:45;;;;;;;28.27;25.13;;;14.00;99.90;;;;;;6151323;23;20013;-68
2021/09/17 06:41:11;;;;;;;28.25;24.08;;;14.10;99.90;;;;;;6152308;23;20049;-69
2021/09/17 06:43:37;;;;;;;32.03;26.42;;;14.20;99.90;;;;;;6149993;23;20075;-69
2021/09/17 06:46:02;;;;;;;31.52;26.27;;;14.20;99.90;;;;;;6150196;23;20068;-69
2021/09/17 06:48:28;;;;;;;28.85;25.40;;;14.40;99.90;;;;;;6150490;23;20373;-69
2021/09/17 06:50:54;;;;;;;28.67;25.02;;;14.50;99.90;;;;;;6149910;23;20591;-68
2021/09/17 06:53:19;;;;;;;28.77;25.65;;;14.70;99.90;;;;;;6127126;23;20022;-68
2021/09/17 06:55:45;;;;;;;29.63;26.52;;;14.90;99.90;;;;;;6151937;23;20132;-68
2021/09/17 06:58:11;;;;;;;33.50;27.05;;;15.00;99.90;;;;;;6150956;23;20759;-68
2021/09/17 07:00:37;;;;;;;29.25;25.88;;;15.10;99.90;;;;;;6151598;23;20025;-68
2021/09/17 07:03:04;;;;;;;27.35;24.55;;;15.30;99.90;;;;;;6150247;23;20469;-68
2021/09/17 07:05:31;;;;;;;29.92;26.83;;;15.50;99.90;;;;;;6150498;23;20022;-68
2021/09/17 07:08:05;;;;;;;28.25;24.95;;;15.70;99.90;;;;;;6152554;23;20010;-68
2021/09/17 07:10:31;;;;;;;28.92;25.95;;;15.80;99.90;;;;;;6152261;23;20033;-68
2021/09/17 07:12:57;;;;;;;31.50;28.10;;;15.90;99.90;;;;;;6151157;23;20010;-68
2021/09/17 07:15:23;;;;;;;31.25;27.70;;;16.00;99.90;;;;;;6151092;23;20028;-68
2021/09/17 07:17:49;;;;;;;30.52;27.27;;;16.00;99.90;;;;;;6150390;23;20555;-68
2021/09/17 07:20:14;;;;;;;27.95;25.02;;;16.00;99.90;;;;;;6152359;23;20342;-68
2021/09/17 07:22:40;;;;;;;30.27;26.45;;;16.10;99.90;;;;;;6149230;23;20041;-68
2021/09/17 07:25:06;;;;;;;31.08;27.95;;;16.20;99.90;;;;;;6125770;23;20026;-68
2021/09/17 07:27:32;;;;;;;30.15;27.08;;;16.20;99.90;;;;;;6151026;23;20018;-68
2021/09/17 07:29:58;;;;;;;30.55;27.25;;;16.30;99.90;;;;;;6149664;23;20029;-68
2021/09/17 07:32:23;;;;;;;30.50;27.40;;;16.30;99.90;;;;;;6150131;23;20056;-68
2021/09/17 07:34:49;;;;;;;29.63;26.52;;;16.40;99.90;;;;;;6150349;23;20013;-68
2021/09/17 07:37:15;;;;;;;33.00;29.48;;;16.40;99.90;;;;;;6151924;23;20013;-68
2021/09/17 07:39:40;;;;;;;32.50;28.05;;;16.50;99.90;;;;;;6151041;23;20014;-68
2021/09/17 07:42:07;;;;;;;33.33;29.00;;;16.50;99.90;;;;;;6148198;23;20021;-68
2021/09/17 07:44:36;;;;;;;33.60;29.98;;;16.60;99.90;;;;;;6150484;23;20013;-68
2021/09/17 07:47:03;;;;;;;33.78;28.27;;;16.60;99.90;;;;;;6150261;23;20018;-68
2021/09/17 07:49:29;;;;;;;31.73;26.35;;;16.70;99.90;;;;;;6149542;23;20557;-68
2021/09/17 07:51:54;;;;;;;29.27;26.20;;;16.70;99.90;;;;;;6149643;23;20022;-68
2021/09/17 07:54:20;;;;;;;30.52;27.23;;;16.80;99.90;;;;;;6150155;23;20025;-68
2021/09/17 07:56:46;;;;;;;31.38;27.65;;;16.80;99.90;;;;;;6151126;23;20524;-68
2021/09/17 07:59:11;;;;;;;30.45;26.63;;;16.90;99.90;;;;;;6149935;23;20080;-68
2021/09/17 08:01:37;;;;;;;29.58;26.15;;;17.00;99.90;;;;;;6149822;23;20468;-69
2021/09/17 08:04:02;;;;;;;29.58;26.38;;;17.00;99.90;;;;;;6150381;23;20101;-67
2021/09/17 08:06:28;;;;;;;24.23;21.63;;;17.10;99.90;;;;;;6150975;23;20037;-67
2021/09/17 08:08:54;;;;;;;28.92;25.98;;;17.10;99.90;;;;;;6151904;23;20017;-67
2021/09/17 08:11:19;;;;;;;30.05;26.95;;;17.10;99.90;;;;;;6149809;23;20306;-67
2021/09/17 08:13:45;;;;;;;26.15;23.38;;;17.20;99.90;;;;;;6150863;23;20084;-67
2021/09/17 08:16:10;;;;;;;27.98;24.63;;;17.30;99.90;;;;;;6150352;23;20009;-67
2021/09/17 08:18:36;;;;;;;24.60;21.95;;;17.40;99.90;;;;;;6151326;23;20017;-67
2021/09/17 08:21:02;;;;;;;24.35;21.80;;;17.40;99.90;;;;;;6150865;23;20044;-67
2021/09/17 08:23:28;;;;;;;26.77;24.08;;;17.50;99.90;;;;;;6150870;23;20017;-67
2021/09/17 08:25:55;;;;;;;27.95;24.92;;;17.60;99.90;;;;;;6150603;23;20337;-67
2021/09/17 08:28:21;;;;;;;25.13;22.52;;;17.70;99.90;;;;;;6147960;23;20024;-67
2021/09/17 08:30:47;;;;;;;28.42;25.48;;;17.80;99.90;;;;;;6151843;23;20013;-74
2021/09/17 08:33:13;;;;;;;26.15;22.85;;;17.80;99.90;;;;;;6148513;23;20024;-71
2021/09/17 08:35:38;;;;;;;24.55;22.25;;;17.90;99.90;;;;;;6146660;23;20022;-67
2021/09/17 08:38:04;;;;;;;25.38;22.77;;;18.00;99.90;;;;;;6150997;23;20045;-67
2021/09/17 08:40:31;;;;;;;25.02;22.65;;;18.20;99.90;;;;;;6152201;23;20043;-67
2021/09/17 08:43:01;;;;;;;24.00;21.67;;;18.30;99.90;;;;;;6150200;23;20041;-66
2021/09/17 08:45:28;;;;;;;24.23;21.90;;;18.40;99.90;;;;;;6150402;23;20498;-67
2021/09/17 08:47:54;;;;;;;24.33;21.77;;;18.30;99.90;;;;;;6149958;23;20089;-67
2021/09/17 08:50:20;;;;;;;20.45;18.45;;;18.50;99.90;;;;;;6152347;23;20045;-67
2021/09/17 08:52:46;;;;;;;22.35;20.17;;;18.50;99.90;;;;;;6151239;23;20457;-67
2021/09/17 08:55:12;;;;;;;20.52;18.42;;;18.20;99.90;;;;;;6126407;23;20084;-67
2021/09/17 08:57:38;;;;;;;20.48;18.38;;;18.20;99.90;;;;;;6126235;23;20073;-67
2021/09/17 09:00:05;;;;;;;18.17;16.38;;;18.40;99.90;;;;;;6124781;23;20025;-67
2021/09/17 09:02:31;;;;;;;16.33;14.73;;;18.50;99.90;;;;;;6153078;23;20013;-67
2021/09/17 09:04:59;;;;;;;10.52;9.50;;;18.60;99.90;;;;;;6152806;23;20020;-67
2021/09/17 09:07:34;;;;;;;11.43;10.32;;;18.60;99.90;;;;;;6100547;23;20524;-67
2021/09/17 09:10:07;;;;;;;11.98;9.63;;;18.70;99.90;;;;;;6125502;23;20022;-67
2021/09/17 09:12:33;;;;;;;14.40;12.90;;;18.70;99.90;;;;;;6153669;23;20009;-67
2021/09/17 09:15:13;;;;;;;12.05;10.95;;;18.80;99.90;;;;;;6126188;23;20055;-67
2021/09/17 09:17:39;;;;;;;11.52;10.43;;;18.70;99.90;;;;;;6153502;23;20013;-67
2021/09/17 09:20:31;;;;;;;9.75;8.85;;;18.70;99.90;;;;;;6151582;23;20013;-67
2021/09/17 09:23:04;;;;;;;10.52;9.55;;;18.80;99.90;;;;;;6152207;23;20137;-67
2021/09/17 09:25:30;;;;;;;11.38;9.85;;;18.80;99.90;;;;;;6125814;23;20018;-67
2021/09/17 09:28:12;;;;;;;8.45;7.60;;;18.80;99.90;;;;;;6151080;23;20017;-67
2021/09/17 09:30:38;;;;;;;9.57;7.95;;;18.80;99.90;;;;;;6153337;23;20337;-67
2021/09/17 09:33:30;;;;;;;8.52;7.43;;;18.70;99.90;;;;;;6126707;23;20081;-67
2021/09/17 09:36:02;;;;;;;8.15;6.28;;;18.70;99.90;;;;;;6152661;23;20009;-67
2021/09/17 09:38:29;;;;;;;8.25;7.45;;;18.80;99.90;;;;;;6152338;23;20014;-67
2021/09/17 09:41:00;;;;;;;8.02;7.22;;;18.90;99.90;;;;;;6151749;23;20009;-67
2021/09/17 09:43:29;;;;;;;8.43;7.72;;;19.00;99.90;;;;;;6125364;23;20017;-67
2021/09/17 09:45:57;;;;;;;9.88;8.88;;;19.00;99.90;;;;;;6151633;23;20014;-67
2021/09/17 09:48:23;;;;;;;10.60;9.60;;;19.00;99.90;;;;;;6151804;23;20014;-67
2021/09/17 09:50:48;;;;;;;8.57;7.68;;;19.00;99.90;;;;;;6151381;23;20029;-67
2021/09/17 09:53:15;;;;;;;8.60;7.78;;;19.10;99.90;;;;;;6125175;23;20028;-67
2021/09/17 09:55:41;;;;;;;8.88;7.88;;;19.20;99.90;;;;;;6152138;23;20364;-67
2021/09/17 09:58:07;;;;;;;8.18;7.00;;;19.30;99.90;;;;;;6153029;23;20083;-67
2021/09/17 10:00:33;;;;;;;8.20;7.40;;;19.20;99.90;;;;;;6151479;23;20088;-67
2021/09/17 10:03:00;;;;;;;8.27;6.88;;;19.10;99.90;;;;;;6152376;23;20021;-67
2021/09/17 10:05:27;;;;;;;6.93;6.25;;;19.20;99.90;;;;;;6152344;23;20562;-67
2021/09/17 10:07:53;;;;;;;8.80;6.93;;;19.30;99.90;;;;;;6151707;23;20013;-67
2021/09/17 10:10:19;;;;;;;7.88;6.60;;;19.40;99.90;;;;;;6151219;23;20068;-67
2021/09/17 10:12:46;;;;;;;9.25;8.20;;;19.60;99.90;;;;;;6126833;23;20009;-67
2021/09/17 10:15:13;;;;;;;7.20;6.53;;;19.50;99.90;;;;;;6102809;23;20048;-67
2021/09/17 10:17:40;;;;;;;6.72;6.13;;;19.60;99.90;;;;;;6152953;23;20025;-67
2021/09/17 10:20:10;;;;;;;7.10;6.43;;;19.70;99.90;;;;;;6126331;23;20017;-67
2021/09/17 10:22:41;;;;;;;7.95;6.22;;;19.70;99.90;;;;;;6152591;23;20014;-67
2021/09/17 10:25:09;;;;;;;6.72;6.13;;;19.80;99.90;;;;;;6153025;23;20021;-67
2021/09/17 10:27:35;;;;;;;8.10;6.70;;;19.90;99.90;;;;;;6126991;23;20414;-67
2021/09/17 10:30:06;;;;;;;6.82;6.13;;;19.90;99.90;;;;;;6150952;23;20025;-67
2021/09/17 10:32:41;;;;;;;6.78;6.10;;;20.00;99.90;;;;;;6152656;23;20096;-66
2021/09/17 10:35:13;;;;;;;7.95;6.80;;;20.00;99.90;;;;;;6152199;23;20036;-66
2021/09/17 10:37:48;;;;;;;10.57;7.78;;;20.00;99.90;;;;;;6153247;23;20018;-66
2021/09/17 10:40:14;;;;;;;7.43;6.72;;;19.80;99.90;;;;;;6152940;23;20692;-66
2021/09/17 10:43:08;;;;;;;7.72;7.03;;;19.90;99.90;;;;;;6153206;23;20056;-71
2021/09/17 10:45:41;;;;;;;8.50;7.70;;;20.00;99.90;;;;;;6126531;23;20021;-71
2021/09/17 10:48:07;;;;;;;7.60;6.90;;;20.20;99.90;;;;;;6101942;23;20014;-71
2021/09/17 10:51:01;;;;;;;7.18;6.47;;;20.20;99.90;;;;;;6102275;23;20060;-71
2021/09/17 10:53:53;;;;;;;10.48;6.32;;;20.30;99.90;;;;;;6117214;23;20017;-71
2021/09/17 10:56:18;;;;;;;8.27;5.85;;;20.30;99.90;;;;;;6126901;23;20373;-71
2021/09/17 10:58:46;;;;;;;8.55;5.90;;;20.40;99.90;;;;;;6126653;23;20029;-71
2021/09/17 11:01:15;;;;;;;8.80;6.75;;;20.40;99.90;;;;;;6126222;23;20495;-71
2021/09/17 11:03:41;;;;;;;7.53;6.75;;;20.50;99.90;;;;;;6125217;23;20009;-71
2021/09/17 11:06:29;;;;;;;8.77;6.65;;;20.50;99.90;;;;;;6126111;23;20334;-71
2021/09/17 11:08:57;;;;;;;7.90;7.10;;;20.50;99.90;;;;;;6125864;23;20013;-72
2021/09/17 11:11:31;;;;;;;9.68;7.38;;;20.50;99.90;;;;;;6125798;23;20093;-71
2021/09/17 11:14:00;;;;;;;8.20;6.18;;;20.30;99.90;;;;;;6125963;23;20013;-72
2021/09/17 11:16:27;;;;;;;5.35;4.88;;;20.40;99.90;;;;;;6151165;23;20096;-70
2021/09/17 11:19:05;;;;;;;5.68;5.18;;;20.50;99.90;;;;;;6125421;23;20010;-70
2021/09/17 11:21:42;;;;;;;5.78;5.18;;;20.60;99.90;;;;;;6126410;23;20769;-70
2021/09/17 11:24:28;;;;;;;6.78;5.00;;;20.60;99.90;;;;;;6151683;23;20021;-70
2021/09/17 11:26:56;;;;;;;5.97;5.40;;;20.60;99.90;;;;;;6126465;23;20515;-70
2021/09/17 11:29:24;;;;;;;5.10;4.40;;;20.60;99.90;;;;;;6126017;23;20489;-71
2021/09/17 11:31:52;;;;;;;6.32;5.38;;;20.50;99.90;;;;;;6150611;23;20088;-66
2021/09/17 11:34:24;;;;;;;6.90;5.22;;;20.50;99.90;;;;;;6151310;23;20014;-66
2021/09/17 11:36:51;;;;;;;6.07;4.20;;;20.40;99.90;;;;;;6126985;23;20028;-66
2021/09/17 11:39:31;;;;;;;4.03;3.70;;;20.40;99.90;;;;;;6151831;23;20021;-66
2021/09/17 11:42:10;;;;;;;5.10;4.60;;;20.60;99.90;;;;;;6151165;23;20083;-66
2021/09/17 11:44:37;;;;;;;5.95;3.90;;;20.70;99.90;;;;;;6125197;23;20083;-67
2021/09/17 11:47:07;;;;;;;6.95;4.72;;;20.90;99.90;;;;;;6151722;23;20021;-66
2021/09/17 11:49:36;;;;;;;6.77;4.27;;;20.90;99.90;;;;;;6125385;23;20171;-66
2021/09/17 11:52:04;;;;;;;4.95;4.45;;;21.00;99.90;;;;;;6143181;23;20288;-66
2021/09/17 11:54:30;;;;;;;5.03;4.20;;;21.20;99.90;;;;;;6181722;23;20040;-67
2021/09/17 11:57:06;;;;;;;5.38;4.18;;;21.20;99.90;;;;;;6181957;23;20336;-66
2021/09/17 11:59:40;;;;;;;3.90;3.60;;;21.30;99.90;;;;;;6155526;23;20052;-66
2021/09/17 12:02:19;;;;;;;3.80;3.50;;;21.30;99.90;;;;;;6182321;23;20016;-66
2021/09/17 12:04:49;;;;;;;6.00;4.35;;;21.30;99.90;;;;;;6182749;23;20013;-66
2021/09/17 12:07:15;;;;;;;4.20;3.55;;;21.40;99.90;;;;;;6155430;23;20333;-66
2021/09/17 12:09:42;;;;;;;4.00;3.30;;;21.40;99.90;;;;;;6156231;23;20013;-66
2021/09/17 12:12:07;;;;;;;3.50;3.15;;;21.40;99.90;;;;;;6180967;23;20368;-65
2021/09/17 12:14:33;;;;;;;3.75;3.13;;;21.40;99.90;;;;;;6180291;23;20028;-65
2021/09/17 12:17:08;;;;;;;4.55;3.97;;;21.50;99.90;;;;;;6180433;23;20473;-65
2021/09/17 12:19:53;;;;;;;4.45;4.03;;;21.50;99.90;;;;;;6180833;23;20017;-65
2021/09/17 12:22:46;;;;;;;6.20;3.40;;;21.60;99.90;;;;;;6181335;23;20058;-65
2021/09/17 12:25:15;;;;;;;4.22;3.88;;;21.50;99.90;;;;;;6156402;23;20021;-65
2021/09/17 12:27:46;;;;;;;4.50;4.10;;;21.60;99.90;;;;;;6157223;23;20037;-65
2021/09/17 12:30:19;;;;;;;5.28;3.90;;;21.30;99.90;;;;;;6183665;23;20009;-66
2021/09/17 12:33:04;;;;;;;3.75;3.28;;;21.20;99.90;;;;;;6157039;23;20113;-65
2021/09/17 12:35:30;;;;;;;6.20;4.85;;;21.30;99.90;;;;;;6157985;23;20016;-65